createdAt,value
2023-02-09T00:27:16.378Z,102948.32
2023-02-09T00:29:47.993Z,102943.98
2023-02-09T00:32:20.063Z,102940.52
2023-02-09T00:34:47.823Z,102939.08
2023-02-09T00:37:15.879Z,102941.02
2023-02-09T00:39:46.223Z,102943.48
2023-02-09T00:42:16.136Z,102941.43
2023-02-09T00:44:43.881Z,102936.96
2023-02-09T00:47:15.443Z,102938.98
2023-02-09T00:49:43.511Z,102936.98
2023-02-09T00:52:11.183Z,102936.33
2023-02-09T00:54:39.658Z,102939.71
2023-02-09T00:57:07.427Z,102935.43
2023-02-09T00:59:38.434Z,102935.30
2023-02-09T01:02:06.327Z,102928.49
2023-02-09T01:04:35.291Z,102929.11
2023-02-09T01:07:03.103Z,102929.03
2023-02-09T01:09:32.278Z,102932.21
2023-02-09T01:12:02.191Z,102929.90
2023-02-09T01:14:32.759Z,102932.19
2023-02-09T01:17:00.612Z,102933.27
2023-02-09T01:19:29.398Z,102928.61
2023-02-09T01:21:57.141Z,102925.73
2023-02-09T01:24:24.690Z,102925.28
2023-02-09T01:26:56.989Z,102925.70
2023-02-09T01:29:25.658Z,102926.53
2023-02-09T01:31:55.976Z,102921.05
2023-02-09T01:34:24.254Z,102917.13
2023-02-09T01:36:52.123Z,102915.04
2023-02-09T01:39:20.973Z,102913.39
2023-02-09T01:41:50.020Z,102910.27
2023-02-09T01:44:22.895Z,102906.37
2023-02-09T01:46:54.040Z,102905.15
2023-02-09T01:49:25.925Z,102904.84
2023-02-09T01:52:02.956Z,102913.19
2023-02-09T01:54:55.390Z,102912.18
2023-02-09T01:57:49.889Z,102907.75
2023-02-09T02:00:19.743Z,102901.58
2023-02-09T02:02:51.732Z,102895.86
2023-02-09T02:05:20.063Z,102892.67
2023-02-09T02:08:25.942Z,102889.83
2023-02-09T02:10:57.184Z,102886.33
2023-02-09T02:13:25.359Z,102883.69
2023-02-09T02:16:15.142Z,102888.33
2023-02-09T02:18:47.398Z,102892.88
2023-02-09T02:21:55.326Z,102891.92
2023-02-09T02:24:47.836Z,102889.92
2023-02-09T02:27:44.997Z,102884.71
2023-02-09T02:30:32.054Z,102882.50
2023-02-09T02:33:37.255Z,102879.38
2023-02-09T02:37:01.292Z,102879.80
2023-02-09T02:39:55.116Z,102873.06
2023-02-09T02:42:51.459Z,102878.00
2023-02-09T02:45:51.709Z,102881.21
2023-02-09T02:48:19.560Z,102870.97
2023-02-09T02:51:08.341Z,102874.25
2023-02-09T02:53:41.592Z,102873.70
2023-02-09T02:56:22.161Z,102870.42
2023-02-09T02:58:52.474Z,102871.85
2023-02-09T03:01:22.644Z,102870.82
2023-02-09T03:03:51.915Z,102868.98
2023-02-09T03:06:20.177Z,102871.89
2023-02-09T03:08:58.280Z,102869.77
2023-02-09T03:11:31.679Z,102868.18
2023-02-09T03:14:11.956Z,102862.07
2023-02-09T03:16:48.323Z,102854.35
2023-02-09T03:19:52.484Z,102854.34
2023-02-09T03:22:37.591Z,102852.96
2023-02-09T03:25:26.364Z,102850.27
2023-02-09T03:28:17.102Z,102846.00
2023-02-09T03:30:46.378Z,102846.48
2023-02-09T03:33:21.064Z,102840.08
2023-02-09T03:35:52.625Z,102839.69
2023-02-09T03:38:23.057Z,102839.48
2023-02-09T03:40:51.022Z,102841.80
2023-02-09T03:43:20.944Z,102845.69
2023-02-09T03:45:49.029Z,102846.20
2023-02-09T03:48:16.882Z,102847.61
2023-02-09T03:50:44.946Z,102840.52
2023-02-09T03:53:14.524Z,102841.80
2023-02-09T03:55:42.741Z,102842.02
2023-02-09T03:58:10.804Z,102847.39
2023-02-09T04:00:39.780Z,102845.69
2023-02-09T04:03:07.690Z,102844.05
2023-02-09T04:05:38.220Z,102847.71
2023-02-09T04:08:07.499Z,102845.42
2023-02-09T04:10:36.684Z,102843.58
2023-02-09T04:13:04.650Z,102844.50
2023-02-09T04:15:32.739Z,102840.52
2023-02-09T04:18:02.385Z,102840.16
2023-02-09T04:20:30.229Z,102835.70
2023-02-09T04:22:57.969Z,102829.27
2023-02-09T04:25:27.258Z,102829.08
2023-02-09T04:27:55.114Z,102826.11
2023-02-09T04:30:23.217Z,102820.63
2023-02-09T04:32:52.110Z,102816.70
2023-02-09T04:35:20.068Z,102817.86
2023-02-09T04:37:49.268Z,102817.58
2023-02-09T04:40:20.619Z,102819.44
2023-02-09T04:42:52.685Z,102819.95
2023-02-09T04:45:20.581Z,102823.67
2023-02-09T04:47:49.033Z,102819.95
2023-02-09T04:50:17.930Z,102820.16
2023-02-09T04:52:45.888Z,102817.16
2023-02-09T04:55:20.043Z,102820.96
2023-02-09T04:58:11.534Z,102814.00
2023-02-09T05:00:39.736Z,102817.70
2023-02-09T05:03:07.606Z,102816.80
2023-02-09T05:05:40.082Z,102822.86
2023-02-09T05:08:08.333Z,102819.38
2023-02-09T05:10:36.380Z,102817.46
2023-02-09T05:13:05.940Z,102816.36
2023-02-09T05:15:34.806Z,102813.87
2023-02-09T05:18:04.584Z,102805.77
2023-02-09T05:20:34.405Z,102804.44
2023-02-09T05:23:07.494Z,102800.24
2023-02-09T05:25:36.989Z,102798.87
2023-02-09T05:28:12.663Z,102799.55
2023-02-09T05:30:44.464Z,102802.20
2023-02-09T05:33:13.806Z,102797.27
2023-02-09T05:35:41.808Z,102795.90
2023-02-09T05:38:12.108Z,102793.72
2023-02-09T05:40:41.249Z,102790.16
2023-02-09T05:43:10.267Z,102790.00
2023-02-09T05:45:39.062Z,102791.92
2023-02-09T05:48:10.056Z,102788.55
2023-02-09T05:50:39.859Z,102794.48
2023-02-09T05:53:09.672Z,102799.39
2023-02-09T05:55:39.694Z,102798.48
2023-02-09T05:58:08.956Z,102803.40
2023-02-09T06:00:38.869Z,102804.52
2023-02-09T06:03:08.202Z,102798.74
2023-02-09T06:05:40.986Z,102799.83
2023-02-09T06:08:09.963Z,102798.03
2023-02-09T06:10:38.330Z,102799.23
2023-02-09T06:13:07.550Z,102799.46
2023-02-09T06:15:38.203Z,102797.52
2023-02-09T06:18:08.898Z,102798.95
2023-02-09T06:20:36.747Z,102801.56
2023-02-09T06:23:05.135Z,102804.23
2023-02-09T06:25:33.436Z,102801.52
2023-02-09T06:28:04.336Z,102798.50
2023-02-09T06:30:33.082Z,102798.62
2023-02-09T06:33:01.877Z,102804.21
2023-02-09T06:35:31.174Z,102801.46
2023-02-09T06:38:00.011Z,102799.83
2023-02-09T06:40:28.432Z,102796.91
2023-02-09T06:42:57.180Z,102799.96
2023-02-09T06:45:25.190Z,102803.63
2023-02-09T06:47:53.533Z,102796.00
2023-02-09T06:50:21.417Z,102798.83
2023-02-09T06:52:50.000Z,102797.28
2023-02-09T06:55:19.194Z,102792.86
2023-02-09T06:57:46.960Z,102795.15
2023-02-09T07:00:15.239Z,102793.31
2023-02-09T07:02:44.530Z,102789.25
2023-02-09T07:05:13.421Z,102795.00
2023-02-09T07:07:41.384Z,102797.16
2023-02-09T07:10:10.109Z,102798.73
2023-02-09T07:12:40.752Z,102798.73
2023-02-09T07:15:08.998Z,102801.05
2023-02-09T07:17:39.882Z,102801.42
2023-02-09T07:20:09.546Z,102792.96
2023-02-09T07:22:38.949Z,102792.91
2023-02-09T07:25:07.752Z,102795.98
2023-02-09T07:27:36.002Z,102796.77
2023-02-09T07:30:04.698Z,102800.26
2023-02-09T07:32:34.150Z,102798.86
2023-02-09T07:35:02.463Z,102795.00
2023-02-09T07:37:30.421Z,102790.41
2023-02-09T07:39:59.183Z,102785.85
2023-02-09T07:42:27.276Z,102785.45
2023-02-09T07:45:01.417Z,102781.09
2023-02-09T07:47:29.681Z,102783.76
2023-02-09T07:49:58.203Z,102778.98
2023-02-09T07:52:26.602Z,102779.27
2023-02-09T07:54:54.001Z,102778.87
2023-02-09T07:57:21.617Z,102780.54
2023-02-09T07:59:50.277Z,102778.23
2023-02-09T08:02:24.864Z,102778.57
2023-02-09T08:04:53.333Z,102771.75
2023-02-09T08:07:22.143Z,102767.02
2023-02-09T08:09:51.421Z,102770.50
2023-02-09T08:12:42.342Z,102769.69
2023-02-09T08:15:13.065Z,102773.54
2023-02-09T08:17:41.871Z,102771.99
2023-02-09T08:20:17.664Z,102774.52
2023-02-09T08:22:49.004Z,102766.61
2023-02-09T08:25:19.567Z,102765.73
2023-02-09T08:27:47.868Z,102766.00
2023-02-09T08:30:20.086Z,102764.21
2023-02-09T08:32:51.273Z,102759.50
2023-02-09T08:35:20.168Z,102761.06
2023-02-09T08:37:52.331Z,102760.09
2023-02-09T08:40:20.639Z,102757.20
2023-02-09T08:42:50.181Z,102757.55
2023-02-09T08:45:18.948Z,102754.66
2023-02-09T08:47:48.105Z,102757.22
2023-02-09T08:50:19.885Z,102756.98
2023-02-09T08:52:48.706Z,102757.31
2023-02-09T08:55:18.268Z,102756.61
2023-02-09T08:57:46.957Z,102753.65
2023-02-09T09:00:23.747Z,102754.23
2023-02-09T09:02:55.067Z,102747.79
2023-02-09T09:05:24.448Z,102746.41
2023-02-09T09:07:53.367Z,102739.10
2023-02-09T09:10:24.728Z,102738.42
2023-02-09T09:12:54.518Z,102735.68
2023-02-09T09:15:24.039Z,102729.98
2023-02-09T09:17:54.284Z,102722.96
2023-02-09T09:20:22.920Z,102717.64
2023-02-09T09:22:50.881Z,102711.98
2023-02-09T09:25:19.957Z,102703.55
2023-02-09T09:27:49.429Z,102697.77
2023-02-09T09:30:17.144Z,102694.27
2023-02-09T09:32:46.552Z,102690.48
2023-02-09T09:35:14.888Z,102687.86
2023-02-09T09:37:45.812Z,102676.42
2023-02-09T09:40:27.704Z,102668.29
2023-02-09T09:43:00.802Z,102670.16
2023-02-09T09:45:29.998Z,102671.08
2023-02-09T09:47:58.146Z,102662.61
2023-02-09T09:50:30.571Z,102664.30
2023-02-09T09:53:05.010Z,102660.60
2023-02-09T09:55:32.940Z,102660.49
2023-02-09T09:58:03.250Z,102650.21
2023-02-09T10:00:41.442Z,102647.90
2023-02-09T10:03:14.043Z,102648.67
2023-02-09T10:05:42.451Z,102647.98
2023-02-09T10:08:10.687Z,102644.61
2023-02-09T10:11:01.625Z,102640.08
2023-02-09T10:14:03.942Z,102637.95
2023-02-09T10:16:40.144Z,102629.08
2023-02-09T10:19:22.108Z,102627.63
2023-02-09T10:21:51.157Z,102624.80
2023-02-09T10:24:39.657Z,102620.80
2023-02-09T10:27:26.310Z,102612.09
2023-02-09T10:29:56.517Z,102607.85
2023-02-09T10:32:29.168Z,102604.75
2023-02-09T10:34:57.468Z,102597.99
2023-02-09T10:37:37.789Z,102599.20
2023-02-09T10:40:21.876Z,102591.64
2023-02-09T10:43:02.924Z,102588.05
2023-02-09T10:45:47.637Z,102586.31
2023-02-09T10:48:19.459Z,102586.91
2023-02-09T10:50:58.060Z,102577.92
2023-02-09T10:53:32.253Z,102577.12
2023-02-09T10:56:21.333Z,102576.67
2023-02-09T10:59:00.896Z,102570.56
2023-02-09T11:01:32.628Z,102568.16
2023-02-09T11:04:01.446Z,102567.36
2023-02-09T11:06:33.917Z,102561.96
2023-02-09T11:09:16.400Z,102559.64
2023-02-09T11:11:44.837Z,102554.45
2023-02-09T11:14:14.330Z,102553.11
2023-02-09T11:16:44.043Z,102551.73
2023-02-09T11:19:22.243Z,102544.00
2023-02-09T11:22:15.801Z,102543.67
2023-02-09T11:24:58.542Z,102537.52
2023-02-09T11:31:51.515Z,102527.66
2023-02-09T11:34:37.274Z,102526.54
2023-02-09T11:37:44.642Z,102519.35
2023-02-09T11:40:26.530Z,102517.45
2023-02-09T11:43:08.383Z,102515.40
2023-02-09T11:45:43.455Z,102506.38
2023-02-09T11:48:18.433Z,102506.98
2023-02-09T11:51:08.675Z,102502.79
2023-02-09T11:53:37.564Z,102503.42
2023-02-09T11:56:07.738Z,102494.82
2023-02-09T11:58:47.167Z,102492.69
2023-02-09T12:01:35.059Z,102487.89
2023-02-09T12:04:26.188Z,102489.95
2023-02-09T12:06:57.106Z,102483.02
2023-02-09T12:09:45.945Z,102485.64
2023-02-09T12:12:29.314Z,102482.54
2023-02-09T12:15:21.026Z,102479.38
2023-02-09T12:17:57.860Z,102481.36
2023-02-09T12:20:37.272Z,102488.13
2023-02-09T12:23:11.443Z,102487.25
2023-02-09T12:25:51.559Z,102482.66
2023-02-09T12:28:25.676Z,102486.03
2023-02-09T12:30:58.329Z,102480.13
2023-02-09T12:33:26.664Z,102476.87
2023-02-09T12:36:10.901Z,102474.42
2023-02-09T12:38:55.934Z,102473.02
2023-02-09T12:41:41.101Z,102466.82
2023-02-09T12:44:10.922Z,102468.70
2023-02-09T12:46:53.063Z,102469.86
2023-02-09T12:49:33.490Z,102470.88
2023-02-09T12:52:02.041Z,102468.35
2023-02-09T12:55:00.323Z,102463.17
2023-02-09T12:58:06.718Z,102459.30
2023-02-09T13:00:40.532Z,102457.16
2023-02-09T13:03:12.891Z,102454.16
2023-02-09T13:05:41.588Z,102453.73
2023-02-09T13:08:19.553Z,102449.71
2023-02-09T13:11:13.631Z,102454.29
2023-02-09T13:13:56.564Z,102444.12
2023-02-09T13:16:24.199Z,102448.02
2023-02-09T13:19:12.696Z,102447.64
2023-02-09T13:22:01.704Z,102443.20
2023-02-09T13:24:39.046Z,102439.79
2023-02-09T13:27:18.899Z,102437.09
2023-02-09T13:29:51.636Z,102440.25
2023-02-09T13:32:51.299Z,102441.27
2023-02-09T13:35:23.860Z,102435.56
2023-02-09T13:37:58.148Z,102437.78
2023-02-09T13:40:30.908Z,102432.53
2023-02-09T13:43:11.585Z,102433.03
2023-02-09T13:45:48.748Z,102432.39
2023-02-09T13:48:31.251Z,102423.91
2023-02-09T13:51:04.059Z,102417.82
2023-02-09T13:53:33.776Z,102421.16
2023-02-09T13:56:02.499Z,102417.61
2023-02-09T13:58:35.342Z,102414.49
2023-02-09T14:01:08.126Z,102418.52
2023-02-09T14:03:46.929Z,102414.56
2023-02-09T14:06:27.739Z,102405.28
2023-02-09T14:08:58.960Z,102406.39
2023-02-09T14:11:41.603Z,102407.02
2023-02-09T14:14:53.219Z,102402.69
2023-02-09T14:17:25.827Z,102399.74
2023-02-09T14:19:55.907Z,102398.27
2023-02-09T14:22:29.243Z,102397.50
2023-02-09T14:24:58.676Z,102406.02
2023-02-09T14:27:27.601Z,102402.11
2023-02-09T14:29:55.747Z,102402.37
2023-02-09T14:32:37.483Z,102396.00
2023-02-09T14:35:23.150Z,102396.04
2023-02-09T14:37:52.020Z,102397.31
2023-02-09T14:40:29.502Z,102394.95
2023-02-09T14:43:00.534Z,102394.33
2023-02-09T14:45:39.142Z,102389.82
2023-02-09T14:48:29.514Z,102381.61
2023-02-09T14:51:01.633Z,102382.34
2023-02-09T14:53:31.009Z,102382.91
2023-02-09T14:55:59.203Z,102384.30
2023-02-09T14:58:31.459Z,102383.71
2023-02-09T15:01:00.448Z,102382.44
2023-02-09T15:03:28.182Z,102389.04
2023-02-09T15:06:00.789Z,102386.77
2023-02-09T15:08:30.638Z,102385.45
2023-02-09T15:11:24.165Z,102385.00
2023-02-09T15:13:54.790Z,102387.79
2023-02-09T15:16:22.468Z,102389.77
2023-02-09T15:18:50.062Z,102393.08
2023-02-09T15:21:18.343Z,102394.85
2023-02-09T15:23:45.952Z,102397.83
2023-02-09T15:26:16.501Z,102396.68
2023-02-09T15:28:45.107Z,102399.54
2023-02-09T15:31:16.394Z,102396.80
2023-02-09T15:33:45.519Z,102404.43
2023-02-09T15:36:16.621Z,102402.02
2023-02-09T15:38:45.300Z,102401.98
2023-02-09T15:41:34.399Z,102398.74
2023-02-09T15:44:38.074Z,102403.77
2023-02-09T15:47:24.309Z,102401.27
2023-02-09T15:49:51.854Z,102406.31
2023-02-09T15:52:19.266Z,102407.08
2023-02-09T15:54:47.112Z,102398.80
2023-02-09T15:57:15.604Z,102396.88
2023-02-09T15:59:43.275Z,102392.23
2023-02-09T16:02:12.946Z,102389.20
2023-02-09T16:04:41.387Z,102388.83
2023-02-09T16:07:12.332Z,102383.77
2023-02-09T16:09:41.268Z,102388.94
2023-02-09T16:12:11.374Z,102387.75
2023-02-09T16:14:40.177Z,102388.34
2023-02-09T16:17:08.026Z,102388.33
2023-02-09T16:19:36.760Z,102388.33
2023-02-09T16:22:06.133Z,102386.59
2023-02-09T16:24:41.777Z,102389.54
2023-02-09T16:27:28.241Z,102388.02
2023-02-09T16:29:57.201Z,102389.10
2023-02-09T16:32:28.857Z,102386.86
2023-02-09T16:35:07.415Z,102383.10
2023-02-09T16:37:44.949Z,102380.91
2023-02-09T16:40:17.402Z,102378.88
2023-02-09T16:42:47.703Z,102378.90
2023-02-09T16:45:16.316Z,102373.89
2023-02-09T16:47:49.079Z,102374.39
2023-02-09T16:50:33.958Z,102377.23
2023-02-09T16:53:03.478Z,102375.09
2023-02-09T16:55:33.470Z,102369.66
2023-02-09T16:58:03.299Z,102372.91
2023-02-09T17:00:33.285Z,102368.66
2023-02-09T17:03:13.871Z,102364.45
2023-02-09T17:05:44.146Z,102361.85
2023-02-09T17:08:27.078Z,102358.93
2023-02-09T17:10:55.948Z,102357.94
2023-02-09T17:13:23.903Z,102356.48
2023-02-09T17:15:53.349Z,102359.57
2023-02-09T17:18:26.280Z,102356.63
2023-02-09T17:20:55.920Z,102357.55
2023-02-09T17:23:25.047Z,102356.67
2023-02-09T17:25:54.870Z,102357.16
2023-02-09T17:28:26.073Z,102359.94
2023-02-09T17:30:57.198Z,102361.80
2023-02-09T17:33:30.370Z,102362.27
2023-02-09T17:36:25.111Z,102364.54
2023-02-09T17:38:49.089Z,102359.84
2023-02-09T17:41:34.028Z,102355.16
2023-02-09T17:44:22.223Z,102352.77
2023-02-09T17:46:54.418Z,102355.50
2023-02-09T17:49:22.882Z,102351.70
2023-02-09T17:51:51.237Z,102352.91
2023-02-09T17:54:19.764Z,102351.52
2023-02-09T17:56:47.141Z,102354.36
2023-02-09T17:59:19.343Z,102344.94
2023-02-09T18:01:49.269Z,102347.77
2023-02-09T18:04:28.297Z,102347.67
2023-02-09T18:06:58.088Z,102345.13
2023-02-09T18:09:26.016Z,102343.75
2023-02-09T18:12:01.201Z,102343.73
2023-02-09T18:14:31.611Z,102343.02
2023-02-09T18:17:01.149Z,102342.80
2023-02-09T18:19:29.035Z,102343.73
2023-02-09T18:22:02.471Z,102340.68
2023-02-09T18:24:32.118Z,102344.66
2023-02-09T18:27:00.236Z,102345.90
2023-02-09T18:29:31.199Z,102345.33
2023-02-09T18:31:59.614Z,102342.14
2023-02-09T18:34:28.000Z,102343.96
2023-02-09T18:36:57.500Z,102341.73
2023-02-09T18:39:25.070Z,102338.41
2023-02-09T18:41:55.754Z,102337.34
2023-02-09T18:44:28.141Z,102341.41
2023-02-09T18:46:56.491Z,102338.33
2023-02-09T18:49:24.502Z,102335.64
2023-02-09T18:51:51.980Z,102334.90
2023-02-09T18:54:22.161Z,102336.77
2023-02-09T18:56:55.529Z,102335.39
2023-02-09T18:59:30.448Z,102331.88
2023-02-09T19:02:05.034Z,102332.10
2023-02-09T19:04:32.476Z,102327.52
2023-02-09T19:07:09.022Z,102324.27
2023-02-09T19:09:40.014Z,102322.25
2023-02-09T19:12:14.347Z,102313.77
2023-02-09T19:14:45.764Z,102309.66
2023-02-09T19:17:16.317Z,102308.48
2023-02-09T19:19:55.999Z,102301.19
2023-02-09T19:22:28.103Z,102302.04
2023-02-09T19:25:00.292Z,102302.58
2023-02-09T19:27:29.838Z,102298.55
2023-02-09T19:29:59.802Z,102293.12
2023-02-09T19:32:27.543Z,102291.89
2023-02-09T19:35:00.009Z,102289.55
2023-02-09T19:37:27.287Z,102288.96
2023-02-09T19:40:10.299Z,102290.52
2023-02-09T19:42:43.483Z,102284.23
2023-02-09T19:45:18.237Z,102284.79
2023-02-09T19:47:45.485Z,102271.40
2023-02-09T19:50:15.057Z,102269.20
2023-02-09T19:52:45.328Z,102265.04
2023-02-09T19:55:13.350Z,102266.61
2023-02-09T19:57:42.238Z,102263.54
2023-02-09T20:00:14.513Z,102258.59
2023-02-09T20:02:42.789Z,102259.78
2023-02-09T20:05:10.497Z,102250.74
2023-02-09T20:07:38.800Z,102244.79
2023-02-09T20:10:08.821Z,102243.05
2023-02-09T20:12:39.626Z,102237.84
2023-02-09T20:15:15.069Z,102238.21
2023-02-09T20:17:44.217Z,102232.95
2023-02-09T20:20:15.901Z,102235.27
2023-02-09T20:22:48.229Z,102234.23
2023-02-09T20:25:15.873Z,102233.84
2023-02-09T20:27:44.430Z,102237.11
2023-02-09T20:30:13.041Z,102235.38
2023-02-09T20:32:42.281Z,102234.05
2023-02-09T20:35:11.263Z,102232.16
2023-02-09T20:37:38.880Z,102225.86
2023-02-09T20:40:11.230Z,102221.92
2023-02-09T20:42:59.074Z,102220.11
2023-02-09T20:45:46.161Z,102211.49
2023-02-09T20:48:14.315Z,102211.20
2023-02-09T20:50:45.057Z,102205.07
2023-02-09T20:53:13.414Z,102203.61
2023-02-09T20:55:41.553Z,102200.69
2023-02-09T20:58:11.764Z,102197.65
2023-02-09T21:00:40.938Z,102194.58
2023-02-09T21:03:10.234Z,102189.40
2023-02-09T21:05:37.854Z,102192.14
2023-02-09T21:08:07.428Z,102191.27
2023-02-09T21:10:38.047Z,102190.05
2023-02-09T21:13:08.989Z,102189.95
2023-02-09T21:15:41.298Z,102193.23
2023-02-09T21:18:08.939Z,102196.39
2023-02-09T21:20:36.722Z,102194.23
2023-02-09T21:23:05.528Z,102194.88
2023-02-09T21:25:35.428Z,102193.52
2023-02-09T21:28:03.911Z,102193.19
2023-02-09T21:30:31.381Z,102190.38
2023-02-09T21:33:01.848Z,102184.81
2023-02-09T21:35:29.506Z,102185.91
2023-02-09T21:37:56.877Z,102185.84
2023-02-09T21:40:25.496Z,102184.40
2023-02-09T21:42:52.828Z,102183.43
2023-02-09T21:45:20.535Z,102186.34
2023-02-09T21:47:48.293Z,102185.61
2023-02-09T21:50:15.866Z,102190.90
2023-02-09T21:52:43.501Z,102184.84
2023-02-09T21:55:11.635Z,102186.50
2023-02-09T21:57:39.424Z,102183.58
2023-02-09T22:00:08.902Z,102181.61
2023-02-09T22:02:36.609Z,102170.11
2023-02-09T22:05:04.326Z,102165.25
2023-02-09T22:07:32.611Z,102156.95
2023-02-09T22:10:01.851Z,102155.16
2023-02-09T22:12:29.566Z,102152.31
2023-02-09T22:14:57.142Z,102149.15
2023-02-09T22:17:25.732Z,102152.48
2023-02-09T22:19:53.333Z,102153.20
2023-02-09T22:22:21.024Z,102152.82
2023-02-09T22:24:49.646Z,102150.92
2023-02-09T22:27:22.294Z,102149.17
2023-02-09T22:29:51.177Z,102150.55
2023-02-09T22:32:20.184Z,102142.64
2023-02-09T22:34:49.201Z,102144.23
2023-02-09T22:37:16.557Z,102141.02
2023-02-09T22:39:45.319Z,102140.16
2023-02-09T22:42:14.042Z,102136.91
2023-02-09T22:44:41.937Z,102136.85
2023-02-09T22:47:09.428Z,102129.31
2023-02-09T22:49:39.201Z,102123.64
2023-02-09T22:52:07.611Z,102117.63
2023-02-09T22:54:36.628Z,102111.91
2023-02-09T22:57:05.294Z,102112.23
2023-02-09T22:59:36.220Z,102113.10
2023-02-09T23:02:04.652Z,102112.42
2023-02-09T23:04:32.979Z,102110.11
2023-02-09T23:07:00.709Z,102112.45
2023-02-09T23:09:28.373Z,102112.27
2023-02-09T23:11:55.635Z,102111.21
2023-02-09T23:14:23.168Z,102111.39
2023-02-09T23:16:50.586Z,102103.75
2023-02-09T23:19:20.154Z,102109.02
2023-02-09T23:21:49.213Z,102108.27
2023-02-09T23:24:21.141Z,102107.20
2023-02-09T23:26:48.991Z,102108.16
2023-02-09T23:29:17.219Z,102102.96
2023-02-09T23:31:45.862Z,102094.02
2023-02-09T23:34:14.916Z,102094.90
2023-02-09T23:36:42.802Z,102094.55
2023-02-09T23:39:13.277Z,102091.20
2023-02-09T23:41:41.261Z,102094.26
2023-02-09T23:44:09.107Z,102091.80
2023-02-09T23:46:36.793Z,102088.38
2023-02-09T23:49:04.346Z,102088.61
2023-02-09T23:51:35.462Z,102083.42
2023-02-09T23:54:04.976Z,102082.35
2023-02-09T23:56:37.429Z,102076.36
2023-02-09T23:59:06.994Z,102068.84
